Time;durP1;ratioP1;P1;durP2;ratioP2;P2;SDS_P1;SDS_P2;PMS_P1;PMS_P2;Temp;Humidity;BMP_temperature;BMP_pressure;BME280_temperature;BME280_humidity;BME280_pressure;Samples;Min_cycle;Max_cycle;Signal;HPM_P1;HPM_P2
2022/08/20 00:00:48;;;;;;;10.40;7.65;;;;;;;17.82;57.15;101423.53;4982621;28;20049;-77
2022/08/20 00:03:26;;;;;;;12.27;8.73;;;;;;;17.89;56.98;101422.19;4960645;28;20042;-77
2022/08/20 00:05:57;;;;;;;16.30;8.90;;;;;;;17.91;56.62;101416.81;4971597;28;20481;-76
2022/08/20 00:08:23;;;;;;;13.25;8.73;;;;;;;17.85;56.76;101412.78;4982106;28;20463;-78
2022/08/20 00:10:50;;;;;;;13.30;8.82;;;;;;;17.92;56.67;101424.66;4970154;28;20034;-76
2022/08/20 00:13:21;;;;;;;15.38;8.77;;;;;;;17.89;56.44;101422.19;4998382;28;20046;-75
2022/08/20 00:15:46;;;;;;;15.15;9.43;;;;;;;17.83;56.64;101425.25;4982896;28;20048;-78
2022/08/20 00:18:13;;;;;;;15.05;10.35;;;;;;;17.77;56.62;101426.47;4985324;28;20054;-77
2022/08/20 00:20:42;;;;;;;15.85;9.93;;;;;;;17.70;57.02;101429.59;4986607;28;20062;-78
2022/08/20 00:23:08;;;;;;;14.95;10.30;;;;;;;17.50;57.46;101423.72;4956490;28;20046;-78
2022/08/20 00:25:34;;;;;;;14.50;9.73;;;;;;;17.59;57.54;101431.09;4988278;28;20042;-79
2022/08/20 00:28:02;;;;;;;13.15;10.48;;;;;;;17.55;57.10;101424.28;4967207;28;20039;-77
2022/08/20 00:30:30;;;;;;;14.13;9.98;;;;;;;17.61;57.38;101420.44;4987779;28;20035;-78
2022/08/20 00:33:02;;;;;;;12.98;10.15;;;;;;;17.49;57.14;101422.00;4980881;28;20042;-77
2022/08/20 00:35:32;;;;;;;15.00;9.18;;;;;;;17.35;58.01;101419.31;4987033;28;20045;-78
2022/08/20 00:37:57;;;;;;;14.20;9.40;;;;;;;17.60;57.43;101419.59;4962640;28;20042;-77
2022/08/20 00:40:29;;;;;;;14.77;9.85;;;;;;;17.57;57.60;101413.63;4987063;28;20041;-78
2022/08/20 00:42:57;;;;;;;14.40;9.10;;;;;;;17.43;57.63;101422.38;4981016;28;20050;-77
2022/08/20 00:45:25;;;;;;;17.05;9.27;;;;;;;17.51;58.01;101414.84;4969633;28;20037;-79
2022/08/20 00:47:52;;;;;;;8.90;7.97;;;;;;;17.54;57.73;101417.31;4976311;28;20420;-78
2022/08/20 00:50:33;;;;;;;14.10;9.52;;;;;;;17.49;57.28;101406.16;4984648;28;20030;-77
2022/08/20 00:53:01;;;;;;;11.63;9.48;;;;;;;17.50;57.80;101399.09;4970644;28;20125;-76
2022/08/20 00:55:28;;;;;;;14.63;8.75;;;;;;;17.40;57.83;101388.19;4991569;28;20029;-79
2022/08/20 00:57:58;;;;;;;11.48;8.45;;;;;;;17.38;57.80;101377.72;4979774;28;20280;-75
2022/08/20 01:00:28;;;;;;;9.63;7.22;;;;;;;17.42;57.78;101383.66;4976043;28;20030;-77
2022/08/20 01:02:54;;;;;;;7.38;5.97;;;;;;;17.40;57.79;101385.53;4958910;28;20165;-80
2022/08/20 01:05:22;;;;;;;9.52;7.53;;;;;;;17.28;57.89;101387.16;4982475;28;20062;-77
2022/08/20 01:07:49;;;;;;;11.65;8.23;;;;;;;17.26;57.90;101388.19;4981801;28;20074;-76
2022/08/20 01:10:19;;;;;;;11.77;8.13;;;;;;;17.25;57.74;101384.69;4966999;28;20162;-76
2022/08/20 01:12:47;;;;;;;10.73;7.38;;;;;;;17.28;57.89;101403.00;4981563;28;20108;-77
2022/08/20 01:15:16;;;;;;;11.93;7.65;;;;;;;17.06;58.21;101407.88;4985382;28;20038;-78
2022/08/20 01:17:45;;;;;;;11.38;7.15;;;;;;;17.14;57.82;101411.75;4975251;28;20046;-74
2022/08/20 01:20:24;;;;;;;14.82;7.78;;;;;;;16.89;58.62;101411.47;4939030;28;20540;-76
2022/08/20 01:26:09;;;;;;;11.50;7.57;;;;;;;16.67;59.31;101411.88;4962003;28;20086;-78
2022/08/20 01:28:42;;;;;;;8.48;7.55;;;;;;;16.88;58.92;101409.78;4963703;28;20773;-77
2022/08/20 01:31:11;;;;;;;11.75;7.45;;;;;;;16.98;58.49;101410.97;4955361;28;20030;-78
2022/08/20 01:33:37;;;;;;;9.07;6.72;;;;;;;17.05;58.38;101417.59;4953586;28;20058;-79
2022/08/20 01:36:04;;;;;;;11.27;8.80;;;;;;;17.04;58.22;101415.88;4946616;28;20038;-76
2022/08/20 01:38:30;;;;;;;9.02;7.00;;;;;;;17.12;58.07;101421.56;4980091;28;20058;-77
2022/08/20 01:41:06;;;;;;;7.40;6.03;;;;;;;17.05;58.19;101417.59;4983177;28;20632;-76
2022/08/20 01:43:32;;;;;;;9.75;6.80;;;;;;;17.12;58.09;101413.63;4981477;28;20120;-77
2022/08/20 01:45:58;;;;;;;8.57;6.60;;;;;;;17.05;57.90;101409.66;4968704;28;20070;-77
2022/08/20 01:48:24;;;;;;;9.20;6.65;;;;;;;17.10;57.87;101412.03;4985926;28;20081;-78
2022/08/20 01:51:00;;;;;;;7.47;6.20;;;;;;;17.14;57.84;101405.63;4971731;28;20066;-79
2022/08/20 01:53:38;;;;;;;9.98;7.30;;;;;;;17.07;58.20;101414.81;4965658;28;20046;-79
2022/08/20 01:56:08;;;;;;;11.70;7.05;;;;;;;17.09;57.87;101419.09;4970579;28;20121;-76
2022/08/20 01:58:36;;;;;;;9.82;6.20;;;;;;;17.06;57.96;101421.06;4998058;28;20059;-76
2022/08/20 02:01:03;;;;;;;8.98;7.57;;;;;;;17.01;57.79;101410.78;4982080;28;20081;-77
2022/08/20 02:03:29;;;;;;;10.93;6.65;;;;;;;16.97;58.18;101419.81;4981214;28;20074;-79
2022/08/20 02:05:55;;;;;;;6.93;5.60;;;;;;;17.01;58.18;101410.78;4967673;28;20575;-76
2022/08/20 02:08:21;;;;;;;9.98;6.57;;;;;;;17.00;58.42;101412.56;4981329;28;20046;-77
2022/08/20 02:10:47;;;;;;;10.18;6.50;;;;;;;17.06;57.92;101413.16;4981853;28;20092;-79
2022/08/20 02:13:14;;;;;;;5.65;5.05;;;;;;;17.12;58.12;101413.63;4967590;28;20047;-78
2022/08/20 02:15:39;;;;;;;9.15;6.20;;;;;;;17.23;57.86;101413.00;4969610;28;20089;-79
2022/08/20 02:18:09;;;;;;;11.77;6.55;;;;;;;17.23;57.70;101416.47;4982863;28;20129;-75
2022/08/20 02:20:36;;;;;;;8.02;7.03;;;;;;;17.26;57.72;101425.16;4974725;28;20554;-79
2022/08/20 02:23:03;;;;;;;11.98;8.55;;;;;;;17.23;57.22;101421.75;4981593;28;20051;-78
2022/08/20 02:25:32;;;;;;;8.15;6.80;;;;;;;17.23;57.45;101426.22;5002089;28;20034;-79
2022/08/20 02:27:59;;;;;;;11.63;7.53;;;;;;;17.10;57.66;101433.16;4989770;28;20062;-78
2022/08/20 02:30:32;;;;;;;11.88;7.70;;;;;;;17.23;57.39;101431.50;4984285;28;20692;-79
2022/08/20 02:33:00;;;;;;;10.77;7.90;;;;;;;17.12;57.57;101429.47;4978967;28;20065;-77
2022/08/20 02:35:26;;;;;;;14.55;8.55;;;;;;;17.15;57.47;101429.28;4985589;28;20110;-77
2022/08/20 02:37:52;;;;;;;10.27;7.40;;;;;;;17.18;57.63;101428.25;4979505;28;20057;-76
2022/08/20 02:40:20;;;;;;;10.80;7.28;;;;;;;17.17;57.71;101427.41;4983923;28;20117;-77
2022/08/20 02:42:46;;;;;;;9.45;6.70;;;;;;;17.23;57.42;101431.50;4985006;28;20110;-77
2022/08/20 02:45:16;;;;;;;11.43;6.97;;;;;;;17.20;57.29;101429.88;4968836;28;20113;-77
2022/08/20 02:47:44;;;;;;;8.30;6.95;;;;;;;17.24;57.21;101434.03;4978805;28;20081;-78
2022/08/20 02:50:16;;;;;;;7.95;4.88;;;;;;;17.27;57.25;101435.66;4981891;28;20670;-76
2022/08/20 02:52:42;;;;;;;9.25;6.43;;;;;;;17.26;57.11;101427.81;4994421;28;20061;-76
2022/08/20 02:55:08;;;;;;;12.35;6.85;;;;;;;17.21;56.88;101428.94;4994280;28;20021;-78
2022/08/20 02:57:34;;;;;;;10.07;6.28;;;;;;;17.18;57.14;101431.75;4967942;28;20711;-78
2022/08/20 03:00:00;;;;;;;7.35;5.20;;;;;;;17.19;56.89;101429.97;4982219;28;20035;-77
2022/08/20 03:02:26;;;;;;;10.20;6.43;;;;;;;17.13;56.86;101431.16;4983744;28;20054;-78
2022/08/20 03:04:52;;;;;;;6.70;5.10;;;;;;;17.16;56.92;101446.00;4982187;28;20038;-78
2022/08/20 03:07:17;;;;;;;7.03;6.00;;;;;;;17.19;56.96;101441.38;4975687;28;20058;-77
2022/08/20 03:09:43;;;;;;;8.45;6.03;;;;;;;17.12;57.12;101445.31;4951832;28;20042;-79
2022/08/20 03:12:09;;;;;;;9.43;6.20;;;;;;;17.19;56.96;101445.81;4968135;28;20054;-75
2022/08/20 03:14:35;;;;;;;8.13;6.53;;;;;;;17.19;56.64;101445.81;4952808;28;20511;-78
2022/08/20 03:17:01;;;;;;;7.20;6.43;;;;;;;17.13;56.62;101431.16;4952237;28;20058;-77
2022/08/20 03:19:26;;;;;;;7.20;5.72;;;;;;;17.17;56.64;101443.25;4952808;28;20039;-77
2022/08/20 03:21:52;;;;;;;8.98;6.38;;;;;;;17.19;56.68;101449.28;4965060;28;20038;-76
2022/08/20 03:24:18;;;;;;;13.20;6.40;;;;;;;17.10;56.60;101446.34;4950930;28;20090;-77
2022/08/20 03:26:44;;;;;;;6.90;5.57;;;;;;;17.07;56.94;101442.13;4955545;28;20070;-77
2022/08/20 03:29:10;;;;;;;8.85;6.53;;;;;;;16.99;56.71;101444.34;4938306;28;20066;-78
2022/08/20 03:31:35;;;;;;;7.45;4.95;;;;;;;16.97;56.73;101446.22;4945945;28;20035;-79
2022/08/20 03:34:01;;;;;;;9.07;5.32;;;;;;;16.89;56.54;101444.03;4958408;28;20050;-78
2022/08/20 03:36:28;;;;;;;8.07;4.65;;;;;;;16.79;56.92;101456.91;4978998;28;20073;-79
2022/08/20 03:38:55;;;;;;;6.40;4.55;;;;;;;16.73;56.89;101453.72;4975720;28;20588;-76
2022/08/20 03:41:21;;;;;;;7.05;4.97;;;;;;;16.62;57.02;101452.56;4948315;28;20038;-76
2022/08/20 03:43:47;;;;;;;9.10;4.70;;;;;;;16.51;57.24;101456.72;4973208;28;20046;-78
2022/08/20 03:46:12;;;;;;;8.77;5.07;;;;;;;16.30;57.72;101461.41;4948156;28;20094;-77
2022/08/20 03:48:37;;;;;;;8.07;4.72;;;;;;;16.37;57.45;101460.97;4979204;28;20052;-76
2022/08/20 03:51:03;;;;;;;9.20;4.28;;;;;;;16.30;57.52;101462.25;4963318;28;20041;-78
2022/08/20 03:53:32;;;;;;;6.80;5.05;;;;;;;16.25;57.72;101463.47;4977520;28;20070;-77
2022/08/20 03:56:00;;;;;;;10.93;5.07;;;;;;;16.06;57.82;101453.03;4981366;28;20035;-77
2022/08/20 03:58:30;;;;;;;6.25;3.55;;;;;;;16.22;57.36;101448.66;4981641;28;20206;-77
2022/08/20 04:00:56;;;;;;;8.35;4.65;;;;;;;16.12;57.70;101458.00;4955223;28;20054;-78
2022/08/20 04:03:23;;;;;;;5.25;3.80;;;;;;;16.10;57.76;101457.22;4966446;28;20042;-77
2022/08/20 04:05:49;;;;;;;6.00;3.95;;;;;;;16.08;57.44;101451.19;4949386;28;20041;-76
2022/08/20 04:08:18;;;;;;;14.20;4.47;;;;;;;15.83;58.01;101456.88;4976664;28;20070;-76
2022/08/20 04:10:46;;;;;;;4.15;3.35;;;;;;;15.87;57.91;101461.06;4994269;28;20061;-78
2022/08/20 04:13:12;;;;;;;4.95;3.53;;;;;;;15.86;58.08;101470.75;4978950;28;20953;-78
2022/08/20 04:15:38;;;;;;;5.38;3.90;;;;;;;15.89;57.89;101475.03;4981122;28;20027;-76
2022/08/20 04:18:06;;;;;;;10.13;3.75;;;;;;;15.71;58.04;101468.94;4962928;28;20041;-76
2022/08/20 04:20:35;;;;;;;8.25;3.90;;;;;;;15.85;57.74;101479.59;4986897;28;20060;-78
2022/08/20 04:23:00;;;;;;;6.45;3.15;;;;;;;15.76;57.76;101483.56;4959567;28;20041;-77
2022/08/20 04:25:28;;;;;;;4.43;3.15;;;;;;;15.81;57.99;101491.22;4970505;28;20045;-79
2022/08/20 04:27:53;;;;;;;4.18;2.78;;;;;;;15.87;57.90;101490.91;4981106;28;20476;-78
2022/08/20 04:30:22;;;;;;;7.78;2.88;;;;;;;15.99;57.98;101490.28;4981372;28;20053;-78
2022/08/20 04:32:48;;;;;;;10.35;3.47;;;;;;;16.07;57.38;101497.78;4982890;28;20123;-78
2022/08/20 04:35:16;;;;;;;5.93;2.33;;;;;;;16.23;57.24;101505.72;4966593;28;20031;-78
2022/08/20 04:37:46;;;;;;;8.95;3.65;;;;;;;16.20;56.80;101498.84;4970562;28;20070;-77
2022/08/20 04:43:06;;;;;;;5.28;2.63;;;;;;;16.09;56.68;101503.00;4982121;28;20505;-76
2022/08/20 04:45:32;;;;;;;6.45;2.05;;;;;;;16.04;56.72;101491.81;4978523;28;20034;-78
2022/08/20 04:48:03;;;;;;;5.03;2.10;;;;;;;16.00;56.74;101501.69;4974364;28;20050;-78
2022/08/20 04:50:33;;;;;;;6.17;2.00;;;;;;;15.94;56.35;101501.97;4972135;28;20027;-77
2022/08/20 04:52:58;;;;;;;5.90;1.48;;;;;;;15.92;56.61;101499.41;4970599;28;20377;-77
2022/08/20 04:55:23;;;;;;;8.05;1.98;;;;;;;15.87;56.46;101501.44;4968662;28;20117;-79
2022/08/20 04:57:49;;;;;;;6.28;2.53;;;;;;;15.74;56.61;101506.50;4972903;28;20129;-75
2022/08/20 05:00:16;;;;;;;8.45;2.10;;;;;;;15.80;56.45;101507.97;4996926;28;20058;-77
2022/08/20 05:02:42;;;;;;;5.78;2.03;;;;;;;15.90;56.23;101517.09;4965562;28;20642;-76
2022/08/20 05:05:08;;;;;;;9.07;1.98;;;;;;;15.89;56.11;101510.13;4965833;28;20033;-78
2022/08/20 05:07:44;;;;;;;5.68;1.80;;;;;;;15.89;55.84;101515.41;4980250;28;20520;-78
2022/08/20 05:10:13;;;;;;;4.78;1.70;;;;;;;15.85;55.46;101513.84;4963287;28;20043;-78
2022/08/20 05:12:41;;;;;;;5.10;1.85;;;;;;;15.90;55.11;101508.34;4962380;28;20111;-78
2022/08/20 05:15:10;;;;;;;10.50;1.58;;;;;;;16.00;55.10;101521.00;4949482;28;20031;-79
2022/08/20 05:17:37;;;;;;;3.67;1.00;;;;;;;16.11;55.21;101519.59;4967849;28;20066;-77
2022/08/20 05:20:05;;;;;;;6.35;1.60;;;;;;;16.17;54.46;101520.09;4961860;28;20037;-77
2022/08/20 05:22:30;;;;;;;2.92;1.20;;;;;;;16.34;54.18;101516.56;4980849;28;20323;-77
2022/08/20 05:24:58;;;;;;;6.95;1.35;;;;;;;16.52;53.55;101513.84;4967013;28;20039;-76
2022/08/20 05:27:25;;;;;;;11.70;1.20;;;;;;;16.71;52.98;101514.53;4965920;28;20493;-76
2022/08/20 05:29:59;;;;;;;4.22;0.95;;;;;;;17.00;51.69;101520.84;4984403;28;20080;-79
2022/08/20 05:32:26;;;;;;;5.90;1.35;;;;;;;17.14;49.41;101525.31;4981536;28;20042;-75
2022/08/20 05:34:53;;;;;;;12.20;1.13;;;;;;;18.60;47.45;101526.25;4980936;28;20036;-78
2022/08/20 05:37:19;;;;;;;6.00;0.63;;;;;;;20.09;45.52;101522.47;4967360;28;20133;-77
2022/08/20 05:39:44;;;;;;;10.02;1.00;;;;;;;20.87;40.45;101526.69;4982985;28;20054;-76
2022/08/20 05:42:10;;;;;;;8.13;0.70;;;;;;;20.59;42.79;101527.81;4970143;28;20434;-77
2022/08/20 05:44:37;;;;;;;3.08;0.80;;;;;;;20.70;42.06;101540.31;4978817;28;20034;-78
2022/08/20 05:47:03;;;;;;;0.90;0.30;;;;;;;21.97;41.52;101538.72;4964811;28;20657;-78
2022/08/20 05:49:29;;;;;;;3.60;0.40;;;;;;;23.24;38.44;101544.59;4971823;28;20046;-76
2022/08/20 05:51:55;;;;;;;4.43;0.75;;;;;;;23.24;35.62;101550.78;4978216;28;20030;-79
2022/08/20 05:54:22;;;;;;;4.72;0.90;;;;;;;23.14;37.07;101557.84;4949995;28;20027;-77
2022/08/20 05:56:49;;;;;;;1.92;0.60;;;;;;;22.98;36.68;101553.78;4944668;28;20129;-78
2022/08/20 05:59:15;;;;;;;6.63;0.65;;;;;;;23.86;36.22;101545.63;4960626;28;20804;-78
2022/08/20 06:01:41;;;;;;;4.82;0.47;;;;;;;25.18;32.39;101548.09;4964448;28;20034;-79
2022/08/20 06:04:23;;;;;;;4.72;0.30;;;;;;;26.39;31.45;101545.66;4979603;28;20049;-77
2022/08/20 06:06:52;;;;;;;4.40;0.30;;;;;;;26.22;29.76;101552.66;4979523;28;20105;-77
2022/08/20 06:09:20;;;;;;;8.30;0.60;;;;;;;26.12;29.60;101547.34;4977407;28;20050;-77
2022/08/20 06:11:46;;;;;;;2.20;0.30;;;;;;;25.15;31.50;101544.84;4945197;28;20045;-78
2022/08/20 06:14:11;;;;;;;3.00;0.50;;;;;;;23.92;33.27;101555.75;4962532;28;20039;-79
2022/08/20 06:16:37;;;;;;;2.67;0.40;;;;;;;22.78;35.61;101549.22;4962287;28;20035;-77
2022/08/20 06:19:04;;;;;;;3.42;0.30;;;;;;;22.49;36.79;101555.06;4961830;28;20053;-77
2022/08/20 06:21:29;;;;;;;2.28;0.20;;;;;;;23.28;35.02;101552.25;4959624;28;20034;-76
2022/08/20 06:23:55;;;;;;;8.13;0.88;;;;;;;24.20;32.45;101552.38;4940688;28;20532;-78
2022/08/20 06:26:20;;;;;;;4.13;0.43;;;;;;;25.59;31.24;101547.91;4958009;28;20821;-78
2022/08/20 06:28:46;;;;;;;5.47;0.32;;;;;;;25.85;29.84;101543.63;4984438;28;20120;-79
2022/08/20 06:31:11;;;;;;;2.75;0.38;;;;;;;26.37;28.69;101544.97;4982227;28;20474;-77
2022/08/20 06:33:37;;;;;;;7.10;1.13;;;;;;;26.60;28.94;101532.00;4969134;28;20077;-78
2022/08/20 06:36:03;;;;;;;2.70;0.30;;;;;;;26.56;27.96;101531.47;4952130;28;20453;-79
2022/08/20 06:38:31;;;;;;;4.70;0.45;;;;;;;26.86;29.23;101529.44;4957858;28;20062;-77
2022/08/20 06:40:57;;;;;;;3.50;0.25;;;;;;;27.00;26.85;101528.88;4975597;28;20034;-78
2022/08/20 06:43:22;;;;;;;5.32;0.50;;;;;;;27.72;25.64;101528.81;4968507;28;20456;-79
2022/08/20 06:45:48;;;;;;;4.60;0.28;;;;;;;28.14;26.66;101533.38;4966598;28;20030;-78
2022/08/20 06:48:13;;;;;;;5.80;0.50;;;;;;;27.71;27.68;101527.94;4961907;28;20420;-80
2022/08/20 06:50:42;;;;;;;5.95;0.28;;;;;;;26.43;28.02;101531.81;4962431;28;20037;-78
2022/08/20 06:53:09;;;;;;;4.70;0.35;;;;;;;26.49;28.93;101543.75;4977296;28;20053;-78
2022/08/20 06:55:41;;;;;;;6.88;0.40;;;;;;;26.43;29.04;101537.16;4964426;28;20018;-78
2022/08/20 06:58:09;;;;;;;6.72;0.60;;;;;;;25.45;30.39;101542.00;4959449;28;20038;-78
2022/08/20 07:00:36;;;;;;;2.85;0.50;;;;;;;24.70;30.63;101540.00;4964083;28;20118;-80
2022/08/20 07:03:03;;;;;;;3.70;0.40;;;;;;;23.29;33.16;101537.91;4963723;28;20058;-77
2022/08/20 07:05:33;;;;;;;2.28;0.40;;;;;;;23.72;31.81;101544.97;4949931;28;20401;-78
2022/08/20 07:07:59;;;;;;;4.38;0.30;;;;;;;24.05;31.80;101540.34;4966418;28;21021;-76
2022/08/20 07:10:27;;;;;;;5.15;0.40;;;;;;;23.94;34.55;101543.13;4957218;28;20035;-79
2022/08/20 07:12:54;;;;;;;3.70;0.88;;;;;;;23.52;32.63;101548.47;4956659;28;20351;-77
2022/08/20 07:15:21;;;;;;;6.75;0.22;;;;;;;23.27;32.15;101547.88;4961765;28;20031;-79
2022/08/20 07:17:49;;;;;;;3.65;0.30;;;;;;;21.38;34.36;101545.97;4949322;28;20050;-78
2022/08/20 07:20:15;;;;;;;4.97;0.40;;;;;;;21.20;34.62;101545.53;4960413;28;20389;-78
2022/08/20 07:22:42;;;;;;;3.92;0.43;;;;;;;21.17;35.08;101554.59;4961740;28;20295;-77
2022/08/20 07:25:10;;;;;;;2.47;0.40;;;;;;;21.09;35.45;101552.53;4955148;28;20107;-76
2022/08/20 07:27:36;;;;;;;3.72;0.25;;;;;;;20.62;35.67;101553.28;4957242;28;20042;-79
2022/08/20 07:32:48;;;;;;;5.40;0.57;;;;;;;21.39;35.21;101553.00;4959978;28;20061;-76
2022/08/20 07:35:16;;;;;;;2.97;0.70;;;;;;;23.00;33.30;101553.66;4942907;28;20027;-78
2022/08/20 07:37:44;;;;;;;4.55;0.55;;;;;;;24.74;30.96;101552.94;4959400;28;20046;-77
2022/08/20 07:40:17;;;;;;;6.10;0.68;;;;;;;25.58;29.15;101551.59;4975535;28;20021;-77
2022/08/20 07:42:42;;;;;;;1.70;0.17;;;;;;;26.00;28.76;101545.81;4981526;28;20051;-77
2022/08/20 07:45:11;;;;;;;4.45;0.20;;;;;;;26.55;27.88;101561.91;4980819;28;20099;-79
2022/08/20 07:47:38;;;;;;;4.57;0.30;;;;;;;27.16;27.51;101564.91;4972992;28;20042;-79
2022/08/20 07:50:05;;;;;;;2.38;0.40;;;;;;;26.41;26.88;101575.84;4977495;28;20034;-79
2022/08/20 07:52:34;;;;;;;6.13;0.15;;;;;;;25.79;28.36;101572.81;4980376;28;20101;-78
2022/08/20 07:55:06;;;;;;;3.45;0.20;;;;;;;25.77;27.45;101578.28;4978011;28;20025;-77
2022/08/20 07:57:31;;;;;;;1.73;0.10;;;;;;;27.19;24.74;101578.03;4992134;28;20133;-78
2022/08/20 07:59:58;;;;;;;4.10;0.68;;;;;;;26.41;26.56;101575.84;4975136;28;20117;-78
2022/08/20 08:02:26;;;;;;;2.85;0.20;;;;;;;25.56;26.96;101577.66;4962961;28;20494;-76
2022/08/20 08:04:53;;;;;;;2.25;0.47;;;;;;;24.27;29.32;101583.88;4977965;28;20037;-78
2022/08/20 08:07:20;;;;;;;5.47;0.52;;;;;;;23.43;30.72;101587.44;4985041;28;20042;-77
2022/08/20 08:09:48;;;;;;;5.57;0.30;;;;;;;22.83;30.91;101584.38;4978785;28;20042;-77
2022/08/20 08:12:14;;;;;;;5.78;0.77;;;;;;;23.33;31.18;101592.69;4982532;28;20057;-76
2022/08/20 08:14:41;;;;;;;5.10;0.40;;;;;;;23.20;30.35;101592.00;4979285;28;20037;-75
2022/08/20 08:17:08;;;;;;;2.13;0.38;;;;;;;24.38;29.45;101597.13;4959878;28;20038;-76
2022/08/20 08:19:43;;;;;;;6.25;0.80;;;;;;;25.20;28.16;101593.44;4980799;28;20065;-77
2022/08/20 08:22:11;;;;;;;3.17;0.10;;;;;;;25.24;27.29;101597.47;4973077;28;20509;-78
2022/08/20 08:24:40;;;;;;;4.35;0.30;;;;;;;24.12;28.42;101600.25;4985272;28;20057;-77
2022/08/20 08:27:07;;;;;;;3.33;0.20;;;;;;;25.17;28.27;101602.56;4967034;28;20452;-77
2022/08/20 08:29:34;;;;;;;2.45;0.17;;;;;;;26.23;25.34;101599.91;4981641;28;20034;-77
2022/08/20 08:32:02;;;;;;;3.58;0.15;;;;;;;26.07;25.63;101596.00;4996643;28;20424;-76
2022/08/20 08:34:30;;;;;;;3.78;0.20;;;;;;;26.66;25.56;101593.91;4983000;28;20123;-76
2022/08/20 08:36:57;;;;;;;4.03;0.30;;;;;;;26.60;26.29;101593.66;4980002;28;20034;-79
2022/08/20 08:39:23;;;;;;;1.20;0.22;;;;;;;26.70;25.48;101597.16;4984262;28;20103;-76
2022/08/20 08:41:51;;;;;;;4.28;0.32;;;;;;;25.04;26.83;101597.50;4980904;28;20642;-77
2022/08/20 08:44:23;;;;;;;5.35;0.10;;;;;;;24.65;27.47;101604.56;4980672;28;20484;-76
2022/08/20 08:46:55;;;;;;;7.68;0.60;;;;;;;26.24;25.91;101609.59;4975636;28;20894;-76
2022/08/20 08:49:25;;;;;;;3.85;0.80;;;;;;;25.86;26.21;101608.72;4973792;28;20035;-75
2022/08/20 08:51:57;;;;;;;2.67;0.20;;;;;;;26.73;24.69;101606.72;4974829;28;20031;-76
2022/08/20 08:54:26;;;;;;;2.15;0.20;;;;;;;27.06;24.72;101603.38;4962844;28;20022;-76
2022/08/20 08:56:52;;;;;;;7.05;0.20;;;;;;;28.69;22.98;101608.19;4995478;28;20702;-76
2022/08/20 08:59:19;;;;;;;2.55;0.30;;;;;;;29.61;20.71;101607.31;4977491;28;20030;-77
2022/08/20 09:01:52;;;;;;;2.03;0.45;;;;;;;29.81;21.94;101614.00;4984077;28;20042;-76
2022/08/20 09:04:23;;;;;;;4.28;0.20;;;;;;;29.02;22.19;101616.31;4988010;28;20046;-78
2022/08/20 09:06:53;;;;;;;2.72;0.20;;;;;;;28.82;22.78;101617.63;4961308;28;20041;-75
2022/08/20 09:09:28;;;;;;;2.28;0.20;;;;;;;28.96;22.14;101614.28;4982107;28;20518;-76
2022/08/20 09:12:01;;;;;;;3.25;0.20;;;;;;;28.89;22.44;101610.59;4974375;28;20442;-75
2022/08/20 09:14:26;;;;;;;2.70;0.20;;;;;;;28.66;21.85;101621.13;4976601;28;20658;-77
2022/08/20 09:16:52;;;;;;;1.67;0.25;;;;;;;28.00;22.59;101628.81;4977349;28;20065;-76
2022/08/20 09:19:18;;;;;;;5.18;0.30;;;;;;;27.85;23.22;101625.91;4965350;28;20030;-76
2022/08/20 09:21:43;;;;;;;2.60;0.20;;;;;;;26.32;26.11;101624.97;4980957;28;20492;-76
2022/08/20 09:24:09;;;;;;;3.95;0.50;;;;;;;25.66;25.90;101615.94;4973864;28;20115;-77
2022/08/20 09:26:34;;;;;;;3.63;0.20;;;;;;;25.03;27.93;101627.88;4982278;28;20044;-77
2022/08/20 09:29:00;;;;;;;2.55;0.75;;;;;;;24.59;27.52;101624.69;4973169;28;20054;-76
2022/08/20 09:31:25;;;;;;;3.97;0.80;;;;;;;24.64;27.79;101622.44;4962716;28;20034;-77
2022/08/20 09:33:51;;;;;;;4.95;0.30;;;;;;;23.78;29.81;101628.97;4974021;28;20050;-77
2022/08/20 09:36:17;;;;;;;2.47;0.30;;;;;;;23.45;28.18;101630.00;4981746;28;20046;-78
2022/08/20 09:38:42;;;;;;;2.28;0.10;;;;;;;23.46;28.46;101631.69;4980956;28;20072;-76
2022/08/20 09:41:08;;;;;;;3.47;0.30;;;;;;;23.93;27.69;101629.53;4977611;28;20034;-77
2022/08/20 09:43:33;;;;;;;5.80;0.10;;;;;;;24.82;26.10;101619.09;4977711;28;20097;-74
2022/08/20 09:45:59;;;;;;;4.20;0.32;;;;;;;25.21;25.69;101619.19;4990462;28;20030;-77
2022/08/20 09:48:24;;;;;;;6.28;0.85;;;;;;;25.33;26.00;101618.06;4979978;28;20070;-76
2022/08/20 09:50:50;;;;;;;3.17;0.30;;;;;;;24.60;25.87;101620.16;4977103;28;20101;-77
2022/08/20 09:53:18;;;;;;;4.38;0.20;;;;;;;25.24;25.92;101621.56;4973434;28;20100;-76
2022/08/20 09:55:47;;;;;;;2.58;0.10;;;;;;;26.14;24.93;101623.06;4967905;28;20030;-75
2022/08/20 09:58:17;;;;;;;1.95;0.20;;;;;;;25.86;25.40;101632.81;4980840;28;20057;-77
2022/08/20 10:00:43;;;;;;;3.13;0.38;;;;;;;25.66;25.16;101634.69;4981886;28;20118;-76
2022/08/20 10:03:09;;;;;;;1.52;0.10;;;;;;;24.16;27.01;101639.06;4975081;28;20129;-75
2022/08/20 10:05:34;;;;;;;4.50;0.30;;;;;;;24.12;27.51;101637.63;4980152;28;20041;-77
2022/08/20 10:08:04;;;;;;;2.92;0.40;;;;;;;24.56;26.92;101634.78;4968797;28;20038;-76
2022/08/20 10:10:29;;;;;;;4.90;0.45;;;;;;;23.52;28.61;101644.50;4995342;28;20049;-76
2022/08/20 10:12:55;;;;;;;2.50;0.25;;;;;;;23.49;27.99;101650.09;4976566;28;20058;-79
2022/08/20 10:15:20;;;;;;;3.63;0.20;;;;;;;24.00;27.86;101646.72;4970722;28;20026;-76
2022/08/20 10:17:46;;;;;;;1.98;0.20;;;;;;;24.38;28.76;101648.75;4979273;28;20098;-75
2022/08/20 10:20:13;;;;;;;4.30;0.43;;;;;;;24.70;26.30;101652.25;4976359;28;20042;-77
2022/08/20 10:22:39;;;;;;;3.97;0.40;;;;;;;24.43;27.48;101653.72;4969450;28;20125;-78
2022/08/20 10:25:05;;;;;;;4.38;0.20;;;;;;;24.91;27.14;101649.53;4944964;28;20034;-75
2022/08/20 10:27:32;;;;;;;2.00;0.10;;;;;;;24.72;26.83;101643.13;4966272;28;20038;-76
2022/08/20 10:29:57;;;;;;;1.98;0.20;;;;;;;25.34;26.84;101651.84;4958711;28;20096;-76
2022/08/20 10:32:23;;;;;;;6.57;0.32;;;;;;;26.07;25.68;101651.41;4978312;28;20049;-77
2022/08/20 10:34:48;;;;;;;2.28;0.40;;;;;;;25.28;25.52;101649.72;4977481;28;20066;-75
2022/08/20 10:37:16;;;;;;;1.30;0.20;;;;;;;25.22;25.31;101661.00;4985024;28;20085;-77
2022/08/20 10:39:42;;;;;;;2.28;0.10;;;;;;;24.96;26.28;101658.81;4980261;28;20041;-76
2022/08/20 10:42:07;;;;;;;3.65;0.10;;;;;;;24.98;25.82;101656.88;4977032;28;20066;-76
2022/08/20 10:44:33;;;;;;;2.95;0.88;;;;;;;25.12;25.82;101668.16;4959926;28;20043;-77
2022/08/20 10:47:37;;;;;;;2.10;0.13;;;;;;;25.67;25.95;101663.16;4962083;28;20131;-75
2022/08/20 10:50:06;;;;;;;3.25;0.20;;;;;;;24.67;26.97;101663.25;4956763;28;20501;-75
2022/08/20 10:52:32;;;;;;;1.13;0.15;;;;;;;24.16;27.86;101667.59;4966312;28;20042;-75
2022/08/20 10:54:57;;;;;;;2.63;0.20;;;;;;;24.42;28.09;101662.72;4976577;28;20041;-77
2022/08/20 10:57:26;;;;;;;2.05;0.20;;;;;;;23.81;27.78;101661.59;4981643;28;20276;-74
2022/08/20 10:59:54;;;;;;;1.83;0.20;;;;;;;24.15;26.79;101669.44;4973686;28;20812;-78
2022/08/20 11:02:21;;;;;;;2.05;0.20;;;;;;;23.78;28.88;101667.19;4968460;28;20046;-77
2022/08/20 11:04:47;;;;;;;5.95;0.20;;;;;;;24.57;26.20;101664.06;4954869;28;20045;-77
2022/08/20 11:07:28;;;;;;;1.20;0.32;;;;;;;25.86;25.78;101665.78;4954989;28;20043;-75
2022/08/20 11:09:54;;;;;;;2.92;0.30;;;;;;;25.94;25.39;101651.69;4957185;28;20047;-76
2022/08/20 11:12:21;;;;;;;7.00;2.33;;;;;;;25.16;26.10;101665.06;4955561;28;20039;-77
2022/08/20 11:14:47;;;;;;;7.93;1.10;;;;;;;25.06;26.76;101666.88;4959074;28;20034;-75
2022/08/20 11:17:21;;;;;;;2.90;0.63;;;;;;;24.39;27.00;101665.59;4939173;28;20722;-77
2022/08/20 11:19:47;;;;;;;3.70;0.30;;;;;;;23.31;28.20;101669.31;4951115;28;20073;-76
2022/08/20 11:22:13;;;;;;;2.30;0.20;;;;;;;23.21;29.33;101668.38;4958368;28;20070;-76
2022/08/20 11:24:38;;;;;;;2.92;0.40;;;;;;;23.34;29.75;101669.09;4956856;28;20042;-77
2022/08/20 11:27:08;;;;;;;1.92;0.20;;;;;;;22.71;29.06;101676.78;4960982;28;20049;-74
2022/08/20 11:29:35;;;;;;;5.25;1.65;;;;;;;22.58;29.64;101679.56;4959740;28;20674;-75
2022/08/20 11:32:00;;;;;;;2.03;0.77;;;;;;;23.08;28.59;101675.66;4939745;28;20035;-75
2022/08/20 11:34:26;;;;;;;3.47;1.67;;;;;;;22.85;29.44;101678.38;4959180;28;20062;-76